createdAt,value
2022-12-26T03:59:01.471Z,2.70
2022-12-26T04:00:01.627Z,2.80
2022-12-26T04:01:01.740Z,2.30
2022-12-26T04:02:01.870Z,2.50
2022-12-26T04:03:01.955Z,2.70
2022-12-26T04:04:02.110Z,2.70
2022-12-26T04:05:02.207Z,2.30
2022-12-26T04:06:02.305Z,2.50
2022-12-26T04:07:02.453Z,3.00
2022-12-26T04:08:02.616Z,2.60
2022-12-26T04:09:02.799Z,2.20
2022-12-26T04:10:02.909Z,2.70
2022-12-26T04:11:03.074Z,2.20
2022-12-26T04:12:03.201Z,2.50
2022-12-26T04:13:03.395Z,2.80
2022-12-26T04:14:03.497Z,2.00
2022-12-26T04:15:03.649Z,2.10
2022-12-26T04:16:03.860Z,2.20
2022-12-26T04:17:03.954Z,2.00
2022-12-26T04:18:04.075Z,2.90
2022-12-26T04:19:04.213Z,1.90
2022-12-26T04:20:04.349Z,2.10
2022-12-26T04:21:04.512Z,2.10
2022-12-26T04:22:04.669Z,2.30
2022-12-26T04:23:04.809Z,2.10
2022-12-26T04:24:04.952Z,2.40
2022-12-26T04:25:05.121Z,2.20
2022-12-26T04:26:05.254Z,2.40
2022-12-26T04:27:05.385Z,2.10
2022-12-26T04:28:05.551Z,2.30
2022-12-26T04:29:05.624Z,2.40
2022-12-26T04:30:05.794Z,2.40
2022-12-26T04:31:05.990Z,2.10
2022-12-26T04:32:06.063Z,1.70
2022-12-26T04:33:06.219Z,2.20
2022-12-26T04:34:06.341Z,2.10
2022-12-26T04:35:06.481Z,1.90
2022-12-26T04:36:06.611Z,1.70
2022-12-26T04:37:06.759Z,1.90
2022-12-26T04:38:06.928Z,1.80
2022-12-26T04:39:07.101Z,1.80
2022-12-26T04:40:07.201Z,1.80
2022-12-26T04:41:07.329Z,2.00
2022-12-26T04:42:07.472Z,2.30
2022-12-26T04:43:48.822Z,2.00
2022-12-26T04:44:08.734Z,2.00
2022-12-26T04:45:07.977Z,2.30
2022-12-26T04:46:08.035Z,1.70
2022-12-26T04:47:08.133Z,1.80
2022-12-26T04:48:08.266Z,2.00
2022-12-26T04:49:08.406Z,1.70
2022-12-26T04:50:08.530Z,2.10
2022-12-26T04:51:08.681Z,2.10
2022-12-26T04:52:08.807Z,2.10
2022-12-26T04:53:08.979Z,2.80
2022-12-26T04:54:09.061Z,2.10
2022-12-26T04:55:09.229Z,1.90
2022-12-26T04:56:09.367Z,2.40
2022-12-26T04:57:09.495Z,1.60
2022-12-26T04:58:09.647Z,2.30
2022-12-26T04:59:09.783Z,1.90
2022-12-26T05:00:09.892Z,2.00
2022-12-26T05:01:10.125Z,2.40
2022-12-26T05:02:10.249Z,2.10
2022-12-26T05:03:17.950Z,1.90
2022-12-26T05:04:11.433Z,2.20
2022-12-26T05:05:10.573Z,2.00
2022-12-26T05:06:10.734Z,2.00
2022-12-26T05:07:10.859Z,1.90
2022-12-26T05:08:10.994Z,2.20
2022-12-26T05:09:11.114Z,1.90
2022-12-26T05:10:11.307Z,2.40
2022-12-26T05:11:11.431Z,2.00
2022-12-26T05:12:11.595Z,1.80
2022-12-26T05:13:11.713Z,2.20
2022-12-26T05:14:11.872Z,2.40
2022-12-26T05:15:12.021Z,2.40
2022-12-26T05:16:12.152Z,2.10
2022-12-26T05:17:12.285Z,2.30
2022-12-26T05:18:12.415Z,2.00
2022-12-26T05:19:12.553Z,2.00
2022-12-26T05:20:12.698Z,1.90
2022-12-26T05:21:12.782Z,2.70
2022-12-26T05:22:12.951Z,2.60
2022-12-26T05:23:14.021Z,2.30
2022-12-26T05:24:13.189Z,2.50
2022-12-26T05:25:13.324Z,1.90
2022-12-26T05:26:13.487Z,2.60
2022-12-26T05:27:13.614Z,2.60
2022-12-26T05:28:13.776Z,2.80
2022-12-26T05:29:13.906Z,2.00
2022-12-26T05:30:14.056Z,2.10
2022-12-26T05:31:14.285Z,2.40
2022-12-26T05:32:14.308Z,2.20
2022-12-26T05:33:14.452Z,2.50
2022-12-26T05:34:14.576Z,2.40
2022-12-26T05:35:14.715Z,2.70
2022-12-26T05:36:14.876Z,2.00
2022-12-26T05:37:15.004Z,2.20
2022-12-26T05:38:15.153Z,2.90
2022-12-26T05:39:16.245Z,2.10
2022-12-26T05:40:15.440Z,2.70
2022-12-26T05:41:15.590Z,2.60
2022-12-26T05:42:15.714Z,3.00
2022-12-26T05:43:15.858Z,2.30
2022-12-26T05:44:15.989Z,2.50
2022-12-26T05:45:16.138Z,2.40
2022-12-26T05:46:16.325Z,2.80
2022-12-26T05:47:16.447Z,2.60
2022-12-26T05:48:16.578Z,2.60
2022-12-26T05:49:16.701Z,3.10
2022-12-26T05:50:16.857Z,2.40
2022-12-26T05:51:17.000Z,2.40
2022-12-26T05:52:17.121Z,2.30
2022-12-26T05:53:17.238Z,2.30
2022-12-26T05:54:17.398Z,2.30
2022-12-26T05:55:17.546Z,2.50
2022-12-26T05:56:17.671Z,2.80
2022-12-26T05:57:17.828Z,2.50
2022-12-26T05:58:17.959Z,2.30
2022-12-26T05:59:18.092Z,2.60
2022-12-26T06:00:18.236Z,2.20
2022-12-26T06:01:18.470Z,2.70
2022-12-26T06:02:18.644Z,3.60
2022-12-26T06:03:18.777Z,2.10
2022-12-26T06:04:18.811Z,2.20
2022-12-26T06:05:18.937Z,2.70
2022-12-26T06:06:19.082Z,2.90
2022-12-26T06:07:19.218Z,2.70
2022-12-26T06:08:19.351Z,2.50
2022-12-26T06:09:19.480Z,2.20
2022-12-26T06:10:19.619Z,2.20
2022-12-26T06:11:19.739Z,2.50
2022-12-26T06:12:19.877Z,3.30
2022-12-26T06:13:20.008Z,2.20
2022-12-26T06:14:20.148Z,2.50
2022-12-26T06:15:20.263Z,2.70
2022-12-26T06:16:20.508Z,2.50
2022-12-26T06:17:20.548Z,2.50
2022-12-26T06:18:20.679Z,2.80
2022-12-26T06:19:20.797Z,2.60
2022-12-26T06:20:20.943Z,2.80
2022-12-26T06:21:21.097Z,2.60
2022-12-26T06:22:21.238Z,2.70
2022-12-26T06:23:21.349Z,2.70
2022-12-26T06:24:21.483Z,3.40
2022-12-26T06:25:21.613Z,2.80
2022-12-26T06:26:21.747Z,3.20
2022-12-26T06:27:21.883Z,2.90
2022-12-26T06:28:22.005Z,2.50
2022-12-26T06:29:22.137Z,3.10
2022-12-26T06:30:22.264Z,3.10
2022-12-26T06:31:22.521Z,3.40
2022-12-26T06:32:22.523Z,2.60
2022-12-26T06:33:23.615Z,3.10
2022-12-26T06:34:22.823Z,3.10
2022-12-26T06:35:22.961Z,2.70
2022-12-26T06:36:23.138Z,2.80
2022-12-26T06:37:23.244Z,3.00
2022-12-26T06:38:23.373Z,3.30
2022-12-26T06:39:23.503Z,2.60
2022-12-26T06:40:23.635Z,3.20
2022-12-26T06:41:23.794Z,2.80
2022-12-26T06:42:23.905Z,2.50
2022-12-26T06:43:24.041Z,2.80
2022-12-26T06:44:24.178Z,3.10
2022-12-26T06:45:24.303Z,2.70
2022-12-26T06:46:24.501Z,2.40
2022-12-26T06:47:24.553Z,2.60
2022-12-26T06:48:24.707Z,3.50
2022-12-26T06:49:30.463Z,3.00
2022-12-26T06:50:25.966Z,2.70
2022-12-26T06:51:25.135Z,2.70
2022-12-26T06:52:25.265Z,3.30
2022-12-26T06:53:25.391Z,2.50
2022-12-26T06:54:25.582Z,2.50
2022-12-26T06:55:25.682Z,3.20
2022-12-26T06:56:25.788Z,2.50
2022-12-26T06:57:25.920Z,2.80
2022-12-26T06:58:26.049Z,2.60
2022-12-26T06:59:26.180Z,2.50
2022-12-26T07:00:26.336Z,2.60
2022-12-26T07:01:26.637Z,2.50
2022-12-26T07:02:26.657Z,2.50
2022-12-26T07:03:26.787Z,2.50
2022-12-26T07:04:26.932Z,2.50
2022-12-26T07:05:27.041Z,2.70
2022-12-26T07:06:27.216Z,2.70
2022-12-26T07:07:27.340Z,2.20
2022-12-26T07:08:27.480Z,2.50
2022-12-26T07:09:33.345Z,2.50
2022-12-26T07:10:28.759Z,2.70
2022-12-26T07:11:27.918Z,2.40
2022-12-26T07:12:28.073Z,2.40
2022-12-26T07:13:28.201Z,2.20
2022-12-26T07:14:28.283Z,2.40
2022-12-26T07:15:28.468Z,2.80
2022-12-26T07:16:28.623Z,2.40
2022-12-26T07:17:28.668Z,2.30
2022-12-26T07:18:28.859Z,2.60
2022-12-26T07:19:28.977Z,2.60
2022-12-26T07:20:29.174Z,2.50
2022-12-26T07:21:30.505Z,2.40
2022-12-26T07:22:29.318Z,2.30
2022-12-26T07:23:29.465Z,2.40
2022-12-26T07:24:29.608Z,2.50
2022-12-26T07:25:29.782Z,2.20
2022-12-26T07:26:29.920Z,2.60
2022-12-26T07:27:30.068Z,2.40
2022-12-26T07:28:30.207Z,2.50
2022-12-26T07:29:30.319Z,2.20
2022-12-26T07:30:30.479Z,2.30
2022-12-26T07:31:30.621Z,2.30
2022-12-26T07:32:30.676Z,3.00
2022-12-26T07:33:30.878Z,2.50
2022-12-26T07:34:31.973Z,2.40
2022-12-26T07:35:31.096Z,2.60
2022-12-26T07:36:31.257Z,2.70
2022-12-26T07:37:31.409Z,2.70
2022-12-26T07:38:31.554Z,3.00
2022-12-26T07:39:31.705Z,3.40
2022-12-26T07:40:31.868Z,2.80
2022-12-26T07:41:32.019Z,2.90
2022-12-26T07:42:32.174Z,2.60
2022-12-26T07:43:32.358Z,3.00
2022-12-26T07:44:32.486Z,3.10
2022-12-26T07:45:32.617Z,2.80
2022-12-26T07:46:32.681Z,2.80
2022-12-26T07:47:32.767Z,3.00
2022-12-26T07:48:32.934Z,3.10
2022-12-26T07:49:33.024Z,2.90
2022-12-26T07:50:33.222Z,2.60
2022-12-26T07:51:33.283Z,2.50
2022-12-26T07:52:33.405Z,2.70
2022-12-26T07:53:33.574Z,2.90
2022-12-26T07:54:33.704Z,3.20
2022-12-26T07:55:33.821Z,2.60
2022-12-26T07:56:33.998Z,2.70
2022-12-26T07:57:49.813Z,2.80
2022-12-26T07:58:35.313Z,2.70
2022-12-26T07:59:34.475Z,3.80
2022-12-26T08:00:34.618Z,2.90
2022-12-26T08:01:34.846Z,2.90
2022-12-26T08:02:35.113Z,3.40
2022-12-26T08:03:35.139Z,2.80
2022-12-26T08:04:35.181Z,2.90
2022-12-26T08:05:35.345Z,2.70
2022-12-26T08:06:35.475Z,2.50
2022-12-26T08:07:35.643Z,2.90
2022-12-26T08:08:35.807Z,2.90
2022-12-26T08:09:35.952Z,2.50
2022-12-26T08:10:36.101Z,2.50
2022-12-26T08:11:36.245Z,3.10
2022-12-26T08:12:36.358Z,2.40
2022-12-26T08:13:36.534Z,2.50
2022-12-26T08:14:36.679Z,2.80
2022-12-26T08:15:36.778Z,2.40
2022-12-26T08:16:36.943Z,2.40
2022-12-26T08:17:37.070Z,2.30
2022-12-26T08:18:37.232Z,2.40
2022-12-26T08:19:37.343Z,3.10
2022-12-26T08:20:37.489Z,2.60
2022-12-26T08:21:37.639Z,2.20
2022-12-26T08:22:37.780Z,2.10
2022-12-26T08:23:37.929Z,2.40
2022-12-26T08:24:38.087Z,2.60
2022-12-26T08:25:38.237Z,2.60
2022-12-26T08:26:38.389Z,2.50
2022-12-26T08:27:38.540Z,2.20
2022-12-26T08:28:38.691Z,2.00
2022-12-26T08:29:38.838Z,2.20
2022-12-26T08:30:38.996Z,2.30
2022-12-26T08:31:39.160Z,2.60
2022-12-26T08:32:42.424Z,2.00
2022-12-26T08:33:40.457Z,2.30
2022-12-26T08:34:39.567Z,1.70
2022-12-26T08:35:39.708Z,2.00
2022-12-26T08:36:39.886Z,2.20
2022-12-26T08:37:40.005Z,2.50
2022-12-26T08:38:40.113Z,2.00
2022-12-26T08:39:40.268Z,1.80
2022-12-26T08:40:44.473Z,2.60
2022-12-26T08:41:40.532Z,2.80
2022-12-26T08:42:56.274Z,1.60
2022-12-26T08:44:41.929Z,2.40
2022-12-26T08:45:41.061Z,2.70
2022-12-26T08:46:41.217Z,2.40
2022-12-26T08:47:42.317Z,1.80
2022-12-26T08:48:41.503Z,1.80
2022-12-26T08:49:41.652Z,2.30
2022-12-26T08:50:42.757Z,1.70
2022-12-26T08:51:41.928Z,2.40
2022-12-26T08:52:42.085Z,1.50
2022-12-26T08:53:42.261Z,1.50
2022-12-26T08:54:42.369Z,1.70
2022-12-26T08:55:42.531Z,2.20
2022-12-26T08:56:42.680Z,1.60
2022-12-26T08:57:42.835Z,1.60
2022-12-26T08:58:42.978Z,2.20
2022-12-26T08:59:43.043Z,1.50
2022-12-26T09:00:43.219Z,1.90
2022-12-26T09:01:43.481Z,1.40
2022-12-26T09:02:43.615Z,1.90
2022-12-26T09:03:43.671Z,1.40
2022-12-26T09:04:43.833Z,1.70
2022-12-26T09:05:43.943Z,1.70
2022-12-26T09:06:44.097Z,1.30
2022-12-26T09:07:44.247Z,1.50
2022-12-26T09:08:44.401Z,1.70
2022-12-26T09:09:44.521Z,1.50
2022-12-26T09:10:44.687Z,2.00
2022-12-26T09:11:44.813Z,1.50
2022-12-26T09:12:44.980Z,2.40
2022-12-26T09:13:45.118Z,1.70
2022-12-26T09:14:45.282Z,2.20
2022-12-26T09:15:45.371Z,1.50
2022-12-26T09:16:50.054Z,1.70
2022-12-26T09:17:46.707Z,1.20
2022-12-26T09:18:45.793Z,1.40
2022-12-26T09:19:45.971Z,1.70
2022-12-26T09:20:46.051Z,1.60
2022-12-26T09:21:46.208Z,1.20
2022-12-26T09:22:46.351Z,1.60
2022-12-26T09:23:46.529Z,1.80
2022-12-26T09:24:46.631Z,1.30
2022-12-26T09:25:46.740Z,1.90
2022-12-26T09:26:46.893Z,1.80
2022-12-26T09:27:47.033Z,1.80
2022-12-26T09:28:47.232Z,1.70
2022-12-26T09:29:47.324Z,1.80
2022-12-26T09:30:47.479Z,2.60
2022-12-26T09:31:47.582Z,1.80
2022-12-26T09:32:47.717Z,1.20
2022-12-26T09:33:47.883Z,1.90
2022-12-26T09:34:48.989Z,1.70
2022-12-26T09:35:48.181Z,1.30
2022-12-26T09:36:48.261Z,1.10
2022-12-26T09:37:48.447Z,1.80
2022-12-26T09:38:48.539Z,0.90
2022-12-26T09:39:48.679Z,1.30
2022-12-26T09:40:48.838Z,1.60
2022-12-26T09:41:48.980Z,1.70
2022-12-26T09:42:49.067Z,2.10
2022-12-26T09:43:50.390Z,1.70
2022-12-26T09:44:49.371Z,2.10
2022-12-26T09:45:49.537Z,1.30
2022-12-26T09:46:49.612Z,1.80
2022-12-26T09:47:49.758Z,1.50
2022-12-26T09:48:49.952Z,1.40
2022-12-26T09:49:50.036Z,1.70
2022-12-26T09:50:50.167Z,1.50
2022-12-26T09:51:50.318Z,1.50
2022-12-26T09:52:50.456Z,1.40
2022-12-26T09:53:50.625Z,1.90
2022-12-26T09:54:50.742Z,2.20
2022-12-26T09:55:50.908Z,1.90
2022-12-26T09:57:02.197Z,1.70
2022-12-26T09:57:52.160Z,1.60
2022-12-26T09:58:51.297Z,1.40
2022-12-26T09:59:51.497Z,1.80
2022-12-26T10:00:51.659Z,1.40
2022-12-26T10:01:51.853Z,1.30
2022-12-26T10:13:08.938Z,2.30
2022-12-26T10:14:09.050Z,1.90
2022-12-26T10:15:09.157Z,2.20
2022-12-26T10:16:09.293Z,1.30
2022-12-26T10:17:09.407Z,2.30
2022-12-26T10:18:09.508Z,1.70
2022-12-26T10:19:09.617Z,2.10
2022-12-26T10:20:09.706Z,1.90
2022-12-26T10:21:09.871Z,2.30
2022-12-26T10:22:10.027Z,1.50
2022-12-26T10:23:10.187Z,1.90
2022-12-26T10:24:10.331Z,1.00
2022-12-26T10:25:10.486Z,1.30
2022-12-26T10:26:10.636Z,2.20
2022-12-26T10:27:10.721Z,2.30
2022-12-26T10:28:10.877Z,1.60
2022-12-26T10:29:11.034Z,2.20
2022-12-26T10:30:11.176Z,2.10
2022-12-26T10:31:11.395Z,1.90
2022-12-26T10:32:11.467Z,1.60
2022-12-26T10:33:11.643Z,1.30
2022-12-26T10:34:11.796Z,1.70
2022-12-26T10:35:11.939Z,1.60
2022-12-26T10:36:12.093Z,1.60
2022-12-26T10:37:12.206Z,1.70
2022-12-26T10:38:12.315Z,1.70
2022-12-26T10:39:12.474Z,1.70
2022-12-26T10:40:12.601Z,2.10
2022-12-26T10:41:12.739Z,1.80
2022-12-26T10:42:12.874Z,2.10
2022-12-26T10:43:13.034Z,1.40
2022-12-26T10:44:13.189Z,2.00
2022-12-26T10:45:13.343Z,1.70
2022-12-26T10:46:13.571Z,1.40
2022-12-26T10:47:13.634Z,2.10
2022-12-26T10:48:13.773Z,2.20
2022-12-26T10:49:13.932Z,1.80
2022-12-26T10:50:14.081Z,2.10
2022-12-26T10:51:14.241Z,1.70
2022-12-26T10:52:14.325Z,1.80
2022-12-26T10:53:14.458Z,3.00
2022-12-26T10:54:14.582Z,0.90
2022-12-26T10:55:28.384Z,1.60
2022-12-26T10:56:18.247Z,2.00
2022-12-26T10:57:15.022Z,1.60
2022-12-26T10:58:15.112Z,1.60
2022-12-26T10:59:15.285Z,2.10
2022-12-26T11:00:15.383Z,2.10
2022-12-26T11:01:15.596Z,1.50
2022-12-26T11:02:15.719Z,3.90
2022-12-26T11:03:15.921Z,1.60
2022-12-26T11:04:18.768Z,2.00
2022-12-26T11:06:17.183Z,1.60
2022-12-26T11:07:16.320Z,2.30
2022-12-26T11:08:16.494Z,2.30
2022-12-26T11:09:16.585Z,1.20
2022-12-26T11:10:16.740Z,1.80
2022-12-26T11:11:16.859Z,1.90
2022-12-26T11:12:16.954Z,2.10
2022-12-26T11:13:17.081Z,1.70
2022-12-26T11:14:17.261Z,2.50
2022-12-26T11:15:17.407Z,1.60
2022-12-26T11:16:17.650Z,1.70
2022-12-26T11:17:17.678Z,1.90
2022-12-26T11:18:17.769Z,2.00
2022-12-26T11:19:17.931Z,2.30
2022-12-26T11:20:18.149Z,1.70
2022-12-26T11:21:18.208Z,2.40
2022-12-26T11:22:18.359Z,2.90
2022-12-26T11:23:18.519Z,2.60
2022-12-26T11:24:18.647Z,1.40
2022-12-26T11:25:18.804Z,2.40
2022-12-26T11:26:18.960Z,1.60
2022-12-26T11:27:19.049Z,1.60
2022-12-26T11:28:19.198Z,2.00
2022-12-26T11:29:19.349Z,2.60
2022-12-26T11:30:19.489Z,1.40
2022-12-26T11:31:19.678Z,2.70
2022-12-26T11:32:19.735Z,1.90
2022-12-26T11:33:19.838Z,2.50
2022-12-26T11:34:19.999Z,1.70
2022-12-26T11:35:20.158Z,2.00
2022-12-26T11:36:20.314Z,2.00
2022-12-26T11:37:20.479Z,2.50
2022-12-26T11:38:20.567Z,2.10
2022-12-26T11:39:20.752Z,2.30
2022-12-26T11:40:20.872Z,1.30
2022-12-26T11:41:20.996Z,2.70
2022-12-26T11:42:21.165Z,2.10
2022-12-26T11:43:21.312Z,2.20
2022-12-26T11:44:21.452Z,1.70
2022-12-26T11:45:21.616Z,2.20
2022-12-26T11:46:21.785Z,2.70
2022-12-26T11:47:21.879Z,1.50
2022-12-26T11:48:22.006Z,2.10
2022-12-26T11:49:22.177Z,3.00
2022-12-26T11:50:22.262Z,2.00
2022-12-26T11:51:22.398Z,1.80
2022-12-26T11:52:22.592Z,2.10
2022-12-26T11:53:22.742Z,2.10
2022-12-26T11:54:22.873Z,2.90
2022-12-26T11:55:23.037Z,2.20
2022-12-26T11:56:23.163Z,4.00
2022-12-26T11:57:23.344Z,1.70
2022-12-26T11:58:23.447Z,2.40
2022-12-26T11:59:23.679Z,1.40
2022-12-26T12:00:23.715Z,2.20
2022-12-26T12:01:23.918Z,1.60
2022-12-26T12:02:24.035Z,2.40
2022-12-26T12:03:24.193Z,1.70
2022-12-26T12:04:24.241Z,1.60
2022-12-26T12:05:24.383Z,1.60
2022-12-26T12:06:24.527Z,1.80
2022-12-26T12:07:24.714Z,2.70
2022-12-26T12:08:24.827Z,1.80
2022-12-26T12:09:24.913Z,1.40
2022-12-26T12:10:25.091Z,1.60
2022-12-26T12:11:25.193Z,2.50
2022-12-26T12:12:25.302Z,1.70
2022-12-26T12:13:25.401Z,1.80
2022-12-26T12:14:25.541Z,2.70
2022-12-26T12:15:25.665Z,1.50
2022-12-26T12:16:25.832Z,1.80
2022-12-26T12:17:25.981Z,2.70
2022-12-26T12:18:26.131Z,2.30
2022-12-26T12:19:26.277Z,2.10
2022-12-26T12:20:26.432Z,2.10
2022-12-26T12:21:26.616Z,1.70
2022-12-26T12:22:26.693Z,1.80
2022-12-26T12:23:26.870Z,1.70
2022-12-26T12:24:26.981Z,2.90
2022-12-26T12:25:27.160Z,1.80
2022-12-26T12:26:27.329Z,1.60
2022-12-26T12:27:27.488Z,2.00
2022-12-26T12:28:27.630Z,1.60
2022-12-26T12:29:27.770Z,1.60
2022-12-26T12:30:27.909Z,1.50
2022-12-26T12:31:28.124Z,2.50
2022-12-26T12:32:28.227Z,2.00
2022-12-26T12:33:28.330Z,1.50
2022-12-26T12:34:28.471Z,2.40
2022-12-26T12:35:28.628Z,2.10
2022-12-26T12:36:28.850Z,1.90
2022-12-26T12:37:28.959Z,2.50
2022-12-26T12:38:29.042Z,1.50
2022-12-26T12:39:29.211Z,2.40
2022-12-26T12:40:29.299Z,1.00
2022-12-26T12:41:29.461Z,2.30
2022-12-26T12:42:29.629Z,1.80
2022-12-26T12:43:29.767Z,0.90
2022-12-26T12:44:29.928Z,2.60
2022-12-26T12:45:30.115Z,1.10
2022-12-26T12:46:30.168Z,1.80
2022-12-26T12:47:30.317Z,1.50
2022-12-26T12:48:30.466Z,1.70
2022-12-26T12:49:30.630Z,2.10
2022-12-26T12:50:30.720Z,1.80
2022-12-26T12:51:30.871Z,1.80
2022-12-26T12:52:31.007Z,1.60
2022-12-26T12:53:31.177Z,1.70
2022-12-26T12:54:31.328Z,2.00
2022-12-26T12:55:31.495Z,1.30
2022-12-26T12:56:34.603Z,2.20
2022-12-26T12:57:32.684Z,1.20
2022-12-26T12:58:31.799Z,1.10
2022-12-26T12:59:31.977Z,1.40
2022-12-26T13:00:32.116Z,2.20
2022-12-26T13:01:32.399Z,1.60
2022-12-26T13:02:32.730Z,2.20
2022-12-26T13:03:32.600Z,1.80
2022-12-26T13:04:32.656Z,1.70
2022-12-26T13:05:32.795Z,2.30
2022-12-26T13:06:32.925Z,1.60
2022-12-26T13:07:33.016Z,2.10
2022-12-26T13:08:33.187Z,1.40
2022-12-26T13:09:33.327Z,1.80
2022-12-26T13:10:33.498Z,2.20
2022-12-26T13:11:33.606Z,1.20
2022-12-26T13:12:33.732Z,2.20
2022-12-26T13:13:33.864Z,2.00
2022-12-26T13:14:33.955Z,2.10
2022-12-26T13:15:34.103Z,3.90
2022-12-26T13:16:34.258Z,1.90
2022-12-26T13:17:34.395Z,2.10
2022-12-26T13:18:34.559Z,2.60
2022-12-26T13:19:34.663Z,3.00
2022-12-26T13:20:34.773Z,2.30
2022-12-26T13:21:34.923Z,2.70
2022-12-26T13:22:35.071Z,3.10
2022-12-26T13:23:35.223Z,2.50
2022-12-26T13:24:35.385Z,2.20
2022-12-26T13:25:35.571Z,1.60
2022-12-26T13:26:35.696Z,2.10
2022-12-26T13:27:35.831Z,2.10
2022-12-26T13:28:35.973Z,1.80
2022-12-26T13:29:36.151Z,2.60
2022-12-26T13:30:36.310Z,2.50
2022-12-26T13:31:36.471Z,2.30
2022-12-26T13:32:36.568Z,3.40
2022-12-26T13:33:36.701Z,2.40
2022-12-26T13:34:37.792Z,2.60
2022-12-26T13:35:36.975Z,3.00
2022-12-26T13:36:37.138Z,2.70
2022-12-26T13:37:37.288Z,2.10
2022-12-26T13:38:37.430Z,2.30
2022-12-26T13:39:37.591Z,3.40
2022-12-26T13:40:37.735Z,2.50
2022-12-26T13:41:37.911Z,3.30
2022-12-26T13:42:37.989Z,3.20
2022-12-26T13:43:38.137Z,3.80
2022-12-26T13:44:38.310Z,4.10
2022-12-26T13:45:38.463Z,2.80
2022-12-26T13:46:38.615Z,3.30
2022-12-26T13:47:38.740Z,2.30
2022-12-26T13:48:38.888Z,3.60
2022-12-26T13:49:39.093Z,3.60
2022-12-26T13:50:39.211Z,3.30
2022-12-26T13:51:39.319Z,3.70
2022-12-26T13:52:39.428Z,2.90
2022-12-26T13:53:39.528Z,1.80
2022-12-26T13:54:39.668Z,3.10
2022-12-26T13:55:39.829Z,3.40
2022-12-26T13:56:45.722Z,3.40
2022-12-26T13:57:41.114Z,3.90
2022-12-26T13:58:40.281Z,2.60
2022-12-26T13:59:40.419Z,2.30
2022-12-26T14:00:40.578Z,3.00
2022-12-26T14:01:40.916Z,2.50
2022-12-26T14:03:15.388Z,3.80
2022-12-26T14:03:42.260Z,2.20
2022-12-26T14:04:41.153Z,3.10
2022-12-26T14:05:41.229Z,2.80
2022-12-26T14:06:41.431Z,4.30
2022-12-26T14:07:41.527Z,2.70
2022-12-26T14:08:41.696Z,2.50
2022-12-26T14:09:41.848Z,3.30
2022-12-26T14:10:42.008Z,4.20
2022-12-26T14:11:42.158Z,3.20
2022-12-26T14:12:42.322Z,4.00
2022-12-26T14:13:42.455Z,3.30
2022-12-26T14:14:42.585Z,3.80
2022-12-26T14:15:42.741Z,2.40
2022-12-26T14:16:42.909Z,3.20
2022-12-26T14:17:43.043Z,2.60
2022-12-26T14:18:43.213Z,3.10
2022-12-26T14:19:43.304Z,2.50
2022-12-26T14:20:43.481Z,2.50
2022-12-26T14:21:43.617Z,2.80
2022-12-26T14:22:43.763Z,2.50
2022-12-26T14:23:43.918Z,3.90
2022-12-26T14:24:44.064Z,3.20
2022-12-26T14:25:50.366Z,2.20
2022-12-26T14:26:45.344Z,3.30
2022-12-26T14:27:44.435Z,2.70
2022-12-26T14:28:44.594Z,2.20
2022-12-26T14:29:44.751Z,3.30
2022-12-26T14:30:44.925Z,3.30
2022-12-26T14:31:45.024Z,3.60
2022-12-26T14:32:45.183Z,2.70
2022-12-26T14:33:45.264Z,2.10
2022-12-26T14:34:46.340Z,3.10
2022-12-26T14:35:45.536Z,3.20
2022-12-26T14:36:45.695Z,2.20
2022-12-26T14:37:45.823Z,3.40
2022-12-26T14:38:45.988Z,3.80
2022-12-26T14:39:46.133Z,2.50
2022-12-26T14:40:46.301Z,3.60
2022-12-26T14:41:46.391Z,3.10
2022-12-26T14:42:46.555Z,2.60
2022-12-26T14:43:46.686Z,2.90
2022-12-26T14:44:46.846Z,3.30
2022-12-26T14:45:47.085Z,2.20
2022-12-26T14:46:47.107Z,3.40
2022-12-26T14:47:47.250Z,2.50
2022-12-26T14:48:47.389Z,2.80
2022-12-26T14:49:47.560Z,2.10
2022-12-26T14:50:47.654Z,3.30
2022-12-26T14:51:47.808Z,2.50
2022-12-26T14:52:48.900Z,3.40
2022-12-26T14:53:48.084Z,1.80
2022-12-26T14:54:51.338Z,3.80
2022-12-26T14:55:48.403Z,3.10
2022-12-26T14:56:48.482Z,2.30
2022-12-26T14:57:48.657Z,2.90
2022-12-26T14:58:48.817Z,3.20
2022-12-26T14:59:49.882Z,3.30
2022-12-26T15:00:49.128Z,3.40
2022-12-26T15:01:49.336Z,3.00
2022-12-26T15:02:49.494Z,2.90
2022-12-26T15:03:49.562Z,3.70
2022-12-26T15:04:49.658Z,3.10
2022-12-26T15:05:49.808Z,2.40
2022-12-26T15:06:49.970Z,3.40
2022-12-26T15:07:50.059Z,3.10
2022-12-26T15:08:50.242Z,2.70
2022-12-26T15:09:50.336Z,2.90
2022-12-26T15:10:50.484Z,3.40
2022-12-26T15:11:50.640Z,3.60
2022-12-26T15:12:58.369Z,3.20
2022-12-26T15:13:51.898Z,3.00
2022-12-26T15:14:51.045Z,3.70
2022-12-26T15:15:51.230Z,3.30
2022-12-26T15:16:51.307Z,3.50
2022-12-26T15:17:51.458Z,4.10
2022-12-26T15:18:51.596Z,3.60
2022-12-26T15:19:51.759Z,2.60
2022-12-26T15:20:51.877Z,3.60
2022-12-26T15:21:51.992Z,3.40
2022-12-26T15:22:52.132Z,2.40
2022-12-26T15:23:52.293Z,3.60
2022-12-26T15:25:18.088Z,2.50
2022-12-26T15:25:53.600Z,2.90
2022-12-26T15:26:52.733Z,2.60
2022-12-26T15:27:52.882Z,3.90
2022-12-26T15:28:53.015Z,3.80
2022-12-26T15:29:53.173Z,3.20
2022-12-26T15:30:53.389Z,3.40
2022-12-26T15:31:53.498Z,3.60
2022-12-26T15:32:53.646Z,3.40
2022-12-26T15:33:53.801Z,2.90
2022-12-26T15:34:53.969Z,4.20
2022-12-26T15:35:59.574Z,4.20
2022-12-26T15:36:55.235Z,4.00
2022-12-26T15:37:54.371Z,3.30
2022-12-26T15:38:54.527Z,3.20
2022-12-26T15:39:54.725Z,3.50
2022-12-26T15:40:55.743Z,3.40
2022-12-26T15:41:54.966Z,5.10
2022-12-26T15:42:55.123Z,4.40
2022-12-26T15:43:55.168Z,4.90
2022-12-26T15:44:55.334Z,4.30
2022-12-26T15:45:55.532Z,4.30
2022-12-26T15:46:55.673Z,4.80
2022-12-26T15:47:55.825Z,3.20
2022-12-26T15:48:55.975Z,4.20
2022-12-26T15:49:56.145Z,3.70
2022-12-26T15:50:56.297Z,4.30
2022-12-26T15:51:56.471Z,4.60
2022-12-26T15:52:56.586Z,4.10
2022-12-26T15:53:56.719Z,4.30
2022-12-26T15:54:56.859Z,4.50
2022-12-26T15:55:56.982Z,4.00
2022-12-26T15:56:57.105Z,4.30
2022-12-26T15:57:57.255Z,3.80
2022-12-26T15:58:57.395Z,4.90
2022-12-26T15:59:57.536Z,4.30
2022-12-26T16:00:57.651Z,3.90
2022-12-26T16:12:20.433Z,3.90
2022-12-26T16:13:20.530Z,4.10
2022-12-26T16:14:20.661Z,4.90
2022-12-26T16:15:20.820Z,4.00
2022-12-26T16:16:21.040Z,4.90
2022-12-26T16:17:21.119Z,4.70
2022-12-26T16:18:21.254Z,4.60
2022-12-26T16:19:21.380Z,4.90
2022-12-26T16:20:21.539Z,4.60
2022-12-26T16:21:21.699Z,4.40
2022-12-26T16:22:21.811Z,4.80
2022-12-26T16:23:21.959Z,5.00
2022-12-26T16:24:22.101Z,3.60
2022-12-26T16:25:22.238Z,4.70
2022-12-26T16:26:22.373Z,5.10
2022-12-26T16:27:22.499Z,5.00
2022-12-26T16:28:22.633Z,4.20
2022-12-26T16:29:22.785Z,4.90
2022-12-26T16:30:22.924Z,6.40
2022-12-26T16:31:23.066Z,4.60
2022-12-26T16:32:23.178Z,4.70
2022-12-26T16:33:23.320Z,5.20
2022-12-26T16:34:23.493Z,5.10
2022-12-26T16:35:23.611Z,3.60
2022-12-26T16:36:23.751Z,5.20
2022-12-26T16:37:23.869Z,5.40
2022-12-26T16:38:24.018Z,4.30
2022-12-26T16:39:24.164Z,5.00
2022-12-26T16:40:24.284Z,5.20
2022-12-26T16:41:24.413Z,4.40
2022-12-26T16:42:24.547Z,4.70
2022-12-26T16:43:24.718Z,4.70
2022-12-26T16:44:30.071Z,5.20
2022-12-26T16:45:25.955Z,5.60
2022-12-26T16:46:25.175Z,4.60
2022-12-26T16:47:25.259Z,5.70
2022-12-26T16:48:25.360Z,5.60
2022-12-26T16:49:25.495Z,4.70
2022-12-26T16:50:25.648Z,4.10
2022-12-26T16:51:25.775Z,3.80
2022-12-26T16:52:25.905Z,5.00
2022-12-26T16:53:26.033Z,4.70
2022-12-26T16:54:26.177Z,6.20
2022-12-26T16:55:26.317Z,3.90
2022-12-26T16:56:26.445Z,5.60
2022-12-26T16:57:26.574Z,4.80
2022-12-26T16:58:26.704Z,5.80
2022-12-26T16:59:26.836Z,5.50
2022-12-26T17:00:26.989Z,5.60
2022-12-26T17:01:27.186Z,5.40
2022-12-26T17:02:27.449Z,6.00
2022-12-26T17:03:27.454Z,4.50
2022-12-26T17:04:27.570Z,5.30
2022-12-26T17:05:27.725Z,4.80
2022-12-26T17:06:27.862Z,3.70
2022-12-26T17:07:27.992Z,4.80
2022-12-26T17:08:28.141Z,4.60
2022-12-26T17:09:28.262Z,5.00
2022-12-26T17:10:28.413Z,3.90
2022-12-26T17:11:28.544Z,4.10
2022-12-26T17:12:28.678Z,4.80
2022-12-26T17:13:28.802Z,4.70
2022-12-26T17:14:28.960Z,5.30
2022-12-26T17:15:29.109Z,5.10
2022-12-26T17:16:29.297Z,3.70
2022-12-26T17:17:29.361Z,5.30
2022-12-26T17:18:29.502Z,4.50
2022-12-26T17:19:29.652Z,4.60
2022-12-26T17:20:29.821Z,6.00
2022-12-26T17:21:29.958Z,4.70
2022-12-26T17:22:30.046Z,5.30
2022-12-26T17:23:30.151Z,4.00
2022-12-26T17:24:30.306Z,3.70
2022-12-26T17:25:30.458Z,3.30
2022-12-26T17:26:30.567Z,5.00
2022-12-26T17:27:30.712Z,4.40
2022-12-26T17:28:30.865Z,5.10
2022-12-26T17:29:30.997Z,3.50
2022-12-26T17:30:31.119Z,4.80
2022-12-26T17:31:31.337Z,5.00
2022-12-26T17:32:31.398Z,4.50
2022-12-26T17:33:31.523Z,4.90
2022-12-26T17:34:31.679Z,4.60
2022-12-26T17:35:47.116Z,5.40
2022-12-26T17:37:16.635Z,4.70
2022-12-26T17:37:33.068Z,5.50
2022-12-26T17:38:32.178Z,3.60
2022-12-26T17:39:32.331Z,5.30
2022-12-26T17:40:32.497Z,5.30
2022-12-26T17:41:32.621Z,4.30